Time;durP1;ratioP1;P1;durP2;ratioP2;P2;SDS_P1;SDS_P2;PMS_P1;PMS_P2;Temp;Humidity;BMP_temperature;BMP_pressure;BME280_temperature;BME280_humidity;BME280_pressure;Samples;Min_cycle;Max_cycle;Signal;HPM_P1;HPM_P2
2023/04/04 00:01:16;;;;;;;7.30;3.10;;;128.30;2252.80;;;;;;5038330;28;20063;-84
2023/04/04 00:03:57;;;;;;;4.93;2.00;;;128.20;2252.80;;;;;;5054638;28;20060;-83
2023/04/04 00:06:46;;;;;;;6.90;3.15;;;128.10;2252.80;;;;;;5046049;28;20095;-84
2023/04/04 00:09:22;;;;;;;6.57;3.00;;;128.20;2252.80;;;;;;5019339;28;20037;-84
2023/04/04 00:11:48;;;;;;;3.35;1.40;;;128.20;2252.80;;;;;;5035445;28;20057;-84
2023/04/04 00:14:16;;;;;;;2.83;1.13;;;128.20;2252.80;;;;;;5036182;28;20543;-83
2023/04/04 00:16:42;;;;;;;4.88;2.13;;;128.10;2252.80;;;;;;5018177;28;20037;-83
2023/04/04 00:19:13;;;;;;;5.75;2.55;;;128.20;2252.80;;;;;;5034803;28;20036;-84
2023/04/04 00:21:39;;;;;;;2.35;1.30;;;128.20;2252.80;;;;;;5034707;28;20551;-83
2023/04/04 00:24:05;;;;;;;6.68;3.13;;;128.20;2252.80;;;;;;5034752;28;20036;-82
2023/04/04 00:26:32;;;;;;;4.07;1.75;;;128.10;2252.80;;;;;;5034751;28;20501;-83
2023/04/04 00:29:00;;;;;;;3.47;1.80;;;128.10;2252.80;;;;;;5036052;28;20079;-84
2023/04/04 00:31:26;;;;;;;5.13;2.05;;;128.10;2252.80;;;;;;5037545;28;20047;-83
2023/04/04 00:33:55;;;;;;;4.00;2.35;;;128.20;2252.80;;;;;;5055351;28;20033;-84
2023/04/04 00:36:22;;;;;;;3.33;1.90;;;128.10;2252.80;;;;;;5037493;28;20041;-85
2023/04/04 00:38:52;;;;;;;3.60;1.77;;;128.00;2252.80;;;;;;5038030;28;20025;-84
2023/04/04 00:41:18;;;;;;;4.22;1.65;;;128.00;2252.80;;;;;;5022070;28;20070;-83
2023/04/04 00:43:47;;;;;;;3.63;1.83;;;128.00;2252.80;;;;;;5021362;28;20029;-84
2023/04/04 00:46:17;;;;;;;3.25;1.48;;;103.30;2227.20;;;;;;5055862;28;20159;-85
2023/04/04 00:48:46;;;;;;;3.17;1.55;;;103.30;2227.20;;;;;;5047329;28;20033;-82
2023/04/04 00:51:12;;;;;;;3.28;1.50;;;103.20;2227.20;;;;;;5021883;28;20131;-83
2023/04/04 00:53:39;;;;;;;4.10;1.77;;;103.00;2227.20;;;;;;5038404;28;20528;-82
2023/04/04 00:56:08;;;;;;;5.10;2.38;;;103.10;2227.20;;;;;;5038413;28;20033;-82
2023/04/04 00:58:34;;;;;;;4.72;1.90;;;103.20;2227.20;;;;;;5021219;28;20377;-82
2023/04/04 01:01:01;;;;;;;4.72;2.25;;;103.20;2227.20;;;;;;5021715;28;20033;-84
2023/04/04 01:03:28;;;;;;;4.35;1.83;;;103.10;2227.20;;;;;;5055661;28;20419;-82
2023/04/04 01:05:57;;;;;;;6.78;2.30;;;103.20;2227.20;;;;;;5037760;28;20045;-84
2023/04/04 01:08:27;;;;;;;4.40;1.60;;;103.20;2227.20;;;;;;5037517;28;20392;-83
2023/04/04 01:10:53;;;;;;;6.72;2.50;;;102.90;2227.20;;;;;;5021193;28;20112;-80
2023/04/04 01:13:20;;;;;;;3.42;1.60;;;103.00;2227.20;;;;;;5037961;28;20510;-83
2023/04/04 01:15:46;;;;;;;10.85;4.28;;;102.80;2227.20;;;;;;5022258;28;20033;-83
2023/04/04 01:18:18;;;;;;;7.13;2.95;;;102.90;2227.20;;;;;;5056099;28;20377;-81
2023/04/04 01:20:59;;;;;;;5.50;2.10;;;102.90;2227.20;;;;;;5038884;28;20029;-80
2023/04/04 01:23:46;;;;;;;5.43;2.50;;;102.70;2227.20;;;;;;5037900;28;20032;-79
2023/04/04 01:26:12;;;;;;;4.40;2.00;;;102.60;2227.20;;;;;;5037616;28;20025;-80
2023/04/04 01:28:37;;;;;;;4.55;2.10;;;102.70;2227.20;;;;;;5037417;28;20029;-83
2023/04/04 01:31:08;;;;;;;6.43;2.75;;;102.60;2227.20;;;;;;5037580;28;20025;-80
2023/04/04 01:33:58;;;;;;;3.92;2.08;;;102.60;2227.20;;;;;;5036931;28;20020;-80
2023/04/04 01:36:41;;;;;;;5.07;1.55;;;102.60;2227.20;;;;;;5030751;28;20392;-81
2023/04/04 01:40:00;;;;;;;3.97;1.30;;;102.40;2227.20;;;;;;4995748;28;20038;-81
2023/04/04 01:42:38;;;;;;;2.55;1.30;;;102.50;2227.20;;;;;;5037951;28;20032;-82
2023/04/04 01:45:11;;;;;;;4.82;2.03;;;102.50;2227.20;;;;;;5041100;28;20021;-81
2023/04/04 01:48:38;;;;;;;8.73;4.07;;;102.50;2227.20;;;;;;5043892;28;20036;-81
2023/04/04 01:52:16;;;;;;;10.30;5.72;;;102.50;2227.20;;;;;;5038192;28;20025;-80
2023/04/04 01:55:22;;;;;;;11.18;5.70;;;102.50;2227.20;;;;;;5043782;28;20035;-80
2023/04/04 01:57:56;;;;;;;10.68;5.13;;;77.70;2227.20;;;;;;5030295;28;20369;-81
2023/04/04 02:00:25;;;;;;;8.25;2.97;;;102.40;2227.20;;;;;;5052091;28;20095;-80
2023/04/04 02:02:51;;;;;;;3.08;1.77;;;102.50;2227.20;;;;;;5040280;28;20104;-79
2023/04/04 02:05:26;;;;;;;5.53;2.53;;;77.70;2227.20;;;;;;5026624;28;20056;-81
2023/04/04 02:07:52;;;;;;;3.25;1.80;;;102.40;2227.20;;;;;;5043561;28;20074;-80
2023/04/04 02:10:21;;;;;;;2.92;1.40;;;77.70;2227.20;;;;;;5045105;28;20029;-79
2023/04/04 02:12:47;;;;;;;4.53;2.60;;;77.60;2227.20;;;;;;5042590;28;20032;-80
2023/04/04 02:15:13;;;;;;;5.20;1.92;;;77.70;2227.20;;;;;;5040717;28;20033;-80
2023/04/04 02:17:39;;;;;;;2.67;1.40;;;77.70;2227.20;;;;;;5038960;28;20425;-79
2023/04/04 02:20:07;;;;;;;2.97;1.50;;;102.70;2227.20;;;;;;5038985;28;20033;-80
2023/04/04 02:22:35;;;;;;;3.83;2.22;;;77.70;2227.20;;;;;;5040730;28;20025;-80
2023/04/04 02:25:01;;;;;;;5.95;3.50;;;77.70;2227.20;;;;;;5023090;28;20029;-81
2023/04/04 02:27:29;;;;;;;2.85;1.52;;;102.40;2227.20;;;;;;5021495;28;20025;-81
2023/04/04 02:29:56;;;;;;;3.15;1.90;;;102.40;2227.20;;;;;;5021558;28;20102;-81
2023/04/04 02:32:24;;;;;;;2.33;1.38;;;77.70;2227.20;;;;;;5037108;28;20017;-81
2023/04/04 02:34:52;;;;;;;3.53;1.58;;;102.40;2227.20;;;;;;5022658;28;20029;-79
2023/04/04 02:37:20;;;;;;;2.75;1.48;;;77.70;2227.20;;;;;;5055997;28;20124;-80
2023/04/04 02:39:47;;;;;;;3.95;1.60;;;77.70;2227.20;;;;;;5040271;28;20028;-81
2023/04/04 02:42:15;;;;;;;3.05;1.40;;;77.60;2227.20;;;;;;5007546;28;20116;-80
2023/04/04 02:44:41;;;;;;;4.95;2.65;;;77.70;2227.20;;;;;;5041245;28;20052;-79
2023/04/04 02:47:08;;;;;;;10.00;6.13;;;77.70;2227.20;;;;;;5040174;28;20107;-79
2023/04/04 02:49:37;;;;;;;15.75;8.05;;;102.40;2227.20;;;;;;5055069;28;20036;-80
2023/04/04 02:52:04;;;;;;;14.05;8.60;;;102.40;2227.20;;;;;;5036393;28;20028;-79
2023/04/04 02:54:37;;;;;;;11.30;6.03;;;102.60;2227.20;;;;;;5035873;28;20437;-82
2023/04/04 02:57:05;;;;;;;20.75;11.75;;;102.60;2227.20;;;;;;5034265;28;20033;-80
2023/04/04 02:59:32;;;;;;;19.98;13.73;;;102.50;2227.20;;;;;;5013057;28;20562;-81
2023/04/04 03:01:59;;;;;;;7.07;4.78;;;102.50;2227.20;;;;;;5016112;28;20083;-81
2023/04/04 03:04:25;;;;;;;6.35;4.45;;;102.40;2227.20;;;;;;5031735;28;20485;-81
2023/04/04 03:06:52;;;;;;;4.68;3.08;;;102.50;2227.20;;;;;;5016103;28;20036;-81
2023/04/04 03:09:18;;;;;;;4.68;2.88;;;77.70;2227.20;;;;;;5032717;28;20362;-80
2023/04/04 03:11:46;;;;;;;5.07;3.25;;;77.70;2227.20;;;;;;5034509;28;20029;-80
2023/04/04 03:14:12;;;;;;;9.35;6.07;;;102.40;2227.20;;;;;;5036454;28;20489;-80
2023/04/04 03:16:42;;;;;;;5.30;3.35;;;77.60;2227.20;;;;;;5021041;28;20116;-79
2023/04/04 03:19:09;;;;;;;4.75;2.50;;;77.60;2227.20;;;;;;5037958;28;20083;-80
2023/04/04 03:21:37;;;;;;;5.38;3.05;;;77.60;2227.20;;;;;;5039287;28;20030;-80
2023/04/04 03:24:03;;;;;;;4.65;3.28;;;77.60;2227.20;;;;;;5037546;28;20029;-80
2023/04/04 03:26:29;;;;;;;5.93;3.70;;;77.70;2227.20;;;;;;5039291;28;20026;-80
2023/04/04 03:28:55;;;;;;;5.10;3.60;;;77.70;2227.20;;;;;;5037348;28;20473;-80
2023/04/04 03:31:21;;;;;;;6.10;3.85;;;77.70;2227.20;;;;;;5037145;28;20034;-81
2023/04/04 03:33:48;;;;;;;4.03;2.83;;;77.50;2227.20;;;;;;5037944;28;20037;-80
2023/04/04 03:36:14;;;;;;;4.35;3.03;;;77.50;2227.20;;;;;;5038147;28;20052;-80
2023/04/04 03:38:42;;;;;;;4.57;3.05;;;77.60;2227.20;;;;;;5038142;28;20029;-81
2023/04/04 03:41:10;;;;;;;5.18;3.10;;;77.60;2227.20;;;;;;5040040;28;20500;-80
2023/04/04 03:43:39;;;;;;;4.28;2.53;;;77.70;2227.20;;;;;;5036841;28;20088;-82
2023/04/04 03:46:07;;;;;;;3.85;2.30;;;102.40;2227.20;;;;;;5036513;28;20033;-84
2023/04/04 03:48:43;;;;;;;5.85;3.10;;;77.70;2227.20;;;;;;5037412;28;20033;-82
2023/04/04 03:51:11;;;;;;;4.35;2.70;;;77.70;2227.20;;;;;;5039513;28;20068;-81
2023/04/04 03:53:40;;;;;;;7.70;3.45;;;77.60;2227.20;;;;;;5039791;28;20436;-81
2023/04/04 03:56:10;;;;;;;5.60;3.35;;;77.60;2227.20;;;;;;5039649;28;20045;-81
2023/04/04 03:58:38;;;;;;;5.68;2.97;;;77.50;2227.20;;;;;;5038691;28;20029;-81
2023/04/04 04:01:06;;;;;;;5.75;3.67;;;77.50;2227.20;;;;;;5043757;28;20037;-80
2023/04/04 04:04:05;;;;;;;4.93;3.15;;;77.40;2227.20;;;;;;5042819;28;20079;-81
2023/04/04 04:06:38;;;;;;;5.20;2.92;;;77.50;2227.20;;;;;;5041789;28;20025;-80
2023/04/04 04:09:23;;;;;;;4.90;2.95;;;77.60;2227.20;;;;;;5044424;28;20041;-81
2023/04/04 04:12:34;;;;;;;7.82;4.35;;;77.50;2227.20;;;;;;5044054;28;20051;-80
2023/04/04 04:19:28;;;;;;;6.55;3.83;;;77.50;2227.20;;;;;;5043740;28;20028;-81
2023/04/04 04:22:41;;;;;;;7.53;4.40;;;77.60;2227.20;;;;;;5039433;28;20103;-81
2023/04/04 04:25:40;;;;;;;7.95;4.35;;;77.60;2227.20;;;;;;5009573;28;20073;-81
2023/04/04 04:28:34;;;;;;;6.25;3.40;;;77.40;2227.20;;;;;;5035030;28;20436;-81
2023/04/04 04:31:36;;;;;;;10.75;5.13;;;77.40;2227.20;;;;;;5032102;28;20037;-81
2023/04/04 04:34:05;;;;;;;13.70;8.15;;;77.30;2227.20;;;;;;5029804;28;20065;-81
2023/04/04 04:40:03;;;;;;;8.63;5.82;;;77.30;2227.20;;;;;;4954840;29;20026;-80
2023/04/04 04:42:54;;;;;;;7.22;5.13;;;77.20;2227.20;;;;;;4949007;29;20042;-80
2023/04/04 04:45:35;;;;;;;6.85;3.92;;;77.20;2227.20;;;;;;5036048;28;20038;-80
2023/04/04 04:48:09;;;;;;;8.48;5.20;;;77.20;2227.20;;;;;;5050572;28;20037;-80
2023/04/04 04:50:45;;;;;;;9.23;4.68;;;77.30;2227.20;;;;;;5047196;28;20030;-81
2023/04/04 04:53:14;;;;;;;7.10;4.43;;;103.00;2227.20;;;;;;5043190;28;20026;-78
2023/04/04 04:55:43;;;;;;;6.85;3.95;;;77.30;2227.20;;;;;;5042808;28;20033;-79
2023/04/04 04:58:09;;;;;;;7.60;4.47;;;77.30;2227.20;;;;;;5041009;28;20034;-80
2023/04/04 05:00:36;;;;;;;6.25;4.05;;;77.50;2227.20;;;;;;5036259;28;20396;-79
2023/04/04 05:03:08;;;;;;;6.88;4.53;;;77.40;2227.20;;;;;;5019444;28;20037;-78
2023/04/04 05:05:35;;;;;;;7.07;5.40;;;77.30;2227.20;;;;;;5038736;28;20026;-79
2023/04/04 05:08:02;;;;;;;6.57;3.92;;;77.40;2227.20;;;;;;5023163;28;20171;-80
2023/04/04 05:10:28;;;;;;;8.10;5.63;;;77.50;2227.20;;;;;;5037353;28;20021;-79
2023/04/04 05:12:54;;;;;;;9.20;6.10;;;77.00;2227.20;;;;;;5036459;28;20029;-79
2023/04/04 05:15:21;;;;;;;9.90;5.95;;;77.20;2227.20;;;;;;5040706;28;20036;-79
2023/04/04 05:17:54;;;;;;;7.50;5.07;;;77.10;2227.20;;;;;;5045623;28;20044;-79
2023/04/04 05:20:20;;;;;;;10.50;5.78;;;77.30;2227.20;;;;;;5010678;28;20068;-80
2023/04/04 05:22:49;;;;;;;7.78;4.13;;;77.30;2227.20;;;;;;5043485;28;20057;-81
2023/04/04 05:25:26;;;;;;;10.30;6.50;;;102.50;2227.20;;;;;;5029060;28;20025;-80
2023/04/04 05:27:57;;;;;;;16.73;9.52;;;77.20;2227.20;;;;;;5046878;28;20051;-79
2023/04/04 05:30:25;;;;;;;10.45;7.50;;;77.20;2227.20;;;;;;5029097;28;20061;-79
2023/04/04 05:33:07;;;;;;;11.32;7.47;;;77.10;2227.20;;;;;;5047531;28;20171;-79
2023/04/04 05:35:50;;;;;;;16.17;9.95;;;77.10;2227.20;;;;;;5021470;28;20065;-79
2023/04/04 05:38:17;;;;;;;21.73;12.10;;;77.00;2227.20;;;;;;5041099;28;20112;-79
2023/04/04 05:40:44;;;;;;;27.00;12.85;;;77.00;2227.20;;;;;;5023940;28;20043;-79
2023/04/04 05:43:12;;;;;;;27.70;13.80;;;77.00;2227.20;;;;;;5024016;28;20054;-79
2023/04/04 05:45:40;;;;;;;37.28;18.77;;;77.10;2227.20;;;;;;5008918;28;20026;-79
2023/04/04 05:48:07;;;;;;;30.88;18.63;;;77.10;2227.20;;;;;;5023355;28;20121;-79
2023/04/04 05:50:34;;;;;;;26.95;18.85;;;77.10;2227.20;;;;;;5038007;28;20042;-79
2023/04/04 05:53:06;;;;;;;18.48;13.52;;;77.00;2227.20;;;;;;5041491;28;20060;-79
2023/04/04 05:55:44;;;;;;;13.03;9.03;;;77.00;2227.20;;;;;;5010489;28;20054;-79
2023/04/04 05:58:13;;;;;;;13.85;8.93;;;77.00;2227.20;;;;;;5016975;28;20028;-79
2023/04/04 06:00:40;;;;;;;10.15;8.35;;;77.20;2227.20;;;;;;5025647;28;20181;-79
2023/04/04 06:03:05;;;;;;;12.07;8.70;;;77.20;2227.20;;;;;;5025182;28;20061;-79
2023/04/04 06:05:31;;;;;;;17.60;11.65;;;77.10;2227.20;;;;;;5024421;28;20022;-79
2023/04/04 06:07:59;;;;;;;12.85;8.82;;;77.00;2227.20;;;;;;5027587;28;20032;-78
2023/04/04 06:10:25;;;;;;;11.68;8.07;;;76.90;2227.20;;;;;;5028456;28;20507;-78
2023/04/04 06:12:51;;;;;;;11.32;8.30;;;76.90;2227.20;;;;;;5028216;28;20097;-77
2023/04/04 06:15:16;;;;;;;8.77;6.30;;;76.90;2227.20;;;;;;5028563;28;20022;-78
2023/04/04 06:17:43;;;;;;;14.23;8.10;;;76.90;2227.20;;;;;;5026334;28;20030;-78
2023/04/04 06:20:09;;;;;;;11.70;8.95;;;76.90;2227.20;;;;;;5027389;28;20033;-79
2023/04/04 06:22:35;;;;;;;14.70;11.50;;;76.90;2227.20;;;;;;5024640;28;20026;-80
2023/04/04 06:25:01;;;;;;;11.85;8.98;;;77.30;2227.20;;;;;;5035933;28;20057;-80
2023/04/04 06:27:28;;;;;;;13.00;8.85;;;77.30;2227.20;;;;;;5011764;28;20034;-79
2023/04/04 06:29:53;;;;;;;15.80;10.77;;;77.20;2227.20;;;;;;4998041;28;20072;-80
2023/04/04 06:32:21;;;;;;;21.13;12.77;;;77.30;2227.20;;;;;;4996722;28;20094;-79
2023/04/04 06:34:46;;;;;;;20.30;13.88;;;77.20;2227.20;;;;;;4998745;28;20121;-80
2023/04/04 06:37:12;;;;;;;17.55;12.95;;;77.20;2227.20;;;;;;4997066;28;20113;-79
2023/04/04 06:39:38;;;;;;;18.58;12.68;;;77.20;2227.20;;;;;;4998176;28;20065;-79
2023/04/04 06:42:04;;;;;;;14.05;9.50;;;77.30;2227.20;;;;;;4997126;28;20375;-80
2023/04/04 06:44:30;;;;;;;12.25;10.30;;;77.20;2227.20;;;;;;4997041;28;20039;-79
2023/04/04 06:46:56;;;;;;;11.75;9.52;;;77.10;2227.20;;;;;;4999316;28;20026;-78
2023/04/04 06:49:22;;;;;;;13.38;9.68;;;77.10;2227.20;;;;;;5007205;28;20034;-79
2023/04/04 06:51:50;;;;;;;13.48;9.48;;;77.10;2227.20;;;;;;5009885;28;20026;-80
2023/04/04 06:54:21;;;;;;;21.10;13.35;;;77.20;2227.20;;;;;;5014033;28;20018;-81
2023/04/04 06:56:51;;;;;;;22.27;15.20;;;77.20;2227.20;;;;;;5000039;28;20027;-81
2023/04/04 06:59:17;;;;;;;16.17;12.23;;;77.10;2227.20;;;;;;5030735;28;20022;-80
2023/04/04 07:01:44;;;;;;;15.73;10.95;;;77.00;2227.20;;;;;;5034775;28;20093;-80
2023/04/04 07:04:11;;;;;;;27.13;18.27;;;77.00;2227.20;;;;;;5033094;28;20061;-80
2023/04/04 07:06:38;;;;;;;19.75;14.48;;;77.10;2227.20;;;;;;5032830;28;20105;-80
2023/04/04 07:09:05;;;;;;;23.98;16.88;;;77.10;2227.20;;;;;;5012643;28;20036;-80
2023/04/04 07:11:31;;;;;;;21.50;16.40;;;77.30;2227.20;;;;;;5011944;28;20161;-80
2023/04/04 07:13:57;;;;;;;21.13;13.27;;;77.40;2227.20;;;;;;5009395;28;20046;-81
2023/04/04 07:16:23;;;;;;;19.00;13.90;;;77.40;2227.20;;;;;;5025134;28;20037;-82
2023/04/04 07:18:55;;;;;;;29.92;19.05;;;77.40;2227.20;;;;;;5028763;28;20033;-80
2023/04/04 07:21:23;;;;;;;24.20;16.10;;;77.40;2227.20;;;;;;5030975;28;20028;-79
2023/04/04 07:23:50;;;;;;;21.90;14.48;;;77.30;2227.20;;;;;;5030317;28;20049;-80
2023/04/04 07:26:17;;;;;;;13.98;10.75;;;77.30;2227.20;;;;;;5031545;28;20050;-79
2023/04/04 07:28:48;;;;;;;19.83;14.00;;;77.20;2227.20;;;;;;5015894;28;20385;-80
2023/04/04 07:31:16;;;;;;;25.13;18.27;;;77.20;2227.20;;;;;;5029718;28;20041;-81
2023/04/04 07:33:45;;;;;;;28.73;17.38;;;77.30;2227.20;;;;;;5027287;28;20037;-80
2023/04/04 07:36:15;;;;;;;43.00;23.90;;;77.40;2227.20;;;;;;5028160;28;20029;-80
2023/04/04 07:38:42;;;;;;;38.08;23.10;;;77.40;2227.20;;;;;;5044639;28;20083;-79
2023/04/04 07:41:29;;;;;;;26.35;18.20;;;77.50;2227.20;;;;;;5042812;28;20033;-81
2023/04/04 07:43:55;;;;;;;19.90;14.52;;;77.50;2227.20;;;;;;5041630;28;20049;-80
2023/04/04 07:46:21;;;;;;;18.60;13.40;;;77.40;2227.20;;;;;;5046192;28;20040;-81
2023/04/04 07:48:47;;;;;;;30.00;18.08;;;77.50;2227.20;;;;;;5044029;28;20024;-81
2023/04/04 07:51:14;;;;;;;19.98;13.70;;;77.60;2227.20;;;;;;5039355;28;20552;-80
2023/04/04 07:53:41;;;;;;;19.00;12.43;;;77.50;2227.20;;;;;;5042145;28;20045;-80
2023/04/04 07:56:07;;;;;;;21.95;15.70;;;77.40;2227.20;;;;;;5043886;28;20029;-81
2023/04/04 07:58:35;;;;;;;52.42;32.92;;;77.30;2227.20;;;;;;5042526;28;20033;-81
2023/04/04 08:01:02;;;;;;;41.83;25.17;;;77.60;2227.20;;;;;;5038937;28;20021;-81
2023/04/04 08:03:28;;;;;;;39.53;25.58;;;77.60;2227.20;;;;;;5038656;28;20432;-81
2023/04/04 08:05:55;;;;;;;53.45;35.10;;;77.70;2227.20;;;;;;5037293;28;20064;-82
2023/04/04 08:08:22;;;;;;;31.50;21.70;;;102.40;2227.20;;;;;;5036632;28;20096;-82
2023/04/04 08:10:49;;;;;;;38.20;23.10;;;77.50;2227.20;;;;;;5021884;28;20021;-81
2023/04/04 08:13:25;;;;;;;42.85;29.48;;;102.40;2227.20;;;;;;5028706;28;20053;-82
2023/04/04 08:15:53;;;;;;;37.35;22.50;;;102.40;2227.20;;;;;;5047361;28;20021;-81
2023/04/04 08:18:19;;;;;;;19.70;13.20;;;102.40;2227.20;;;;;;5023188;28;20033;-82
2023/04/04 08:20:46;;;;;;;16.80;13.60;;;102.40;2227.20;;;;;;5048820;28;20021;-81
2023/04/04 08:23:12;;;;;;;16.00;12.23;;;77.70;2227.20;;;;;;5039247;28;20075;-81
2023/04/04 08:25:38;;;;;;;32.15;23.90;;;77.70;2227.20;;;;;;5040812;28;20029;-81
2023/04/04 08:28:04;;;;;;;18.52;15.30;;;102.40;2227.20;;;;;;5039348;28;20044;-80
2023/04/04 08:30:30;;;;;;;20.67;15.15;;;102.50;2227.20;;;;;;5055286;28;20484;-80
2023/04/04 08:32:56;;;;;;;24.40;16.48;;;102.40;2227.20;;;;;;5035000;28;20385;-80
2023/04/04 08:35:22;;;;;;;23.83;16.85;;;102.50;2227.20;;;;;;5022966;28;20040;-82
2023/04/04 08:37:48;;;;;;;29.33;21.00;;;102.50;2227.20;;;;;;5037253;28;20445;-78
2023/04/04 08:40:15;;;;;;;22.27;16.77;;;102.50;2227.20;;;;;;5020101;28;20036;-79
2023/04/04 08:42:45;;;;;;;25.55;17.35;;;102.50;2227.20;;;;;;5028899;28;20409;-80
2023/04/04 08:45:11;;;;;;;21.85;15.35;;;102.50;2227.20;;;;;;5025417;28;20034;-78
2023/04/04 08:47:38;;;;;;;22.17;16.70;;;102.60;2227.20;;;;;;5019857;28;20026;-80
2023/04/04 08:50:06;;;;;;;24.55;17.90;;;102.60;2227.20;;;;;;5014118;28;20037;-81
2023/04/04 08:52:35;;;;;;;15.23;13.40;;;102.70;2227.20;;;;;;5018485;28;20284;-81
2023/04/04 08:55:05;;;;;;;15.32;13.48;;;102.60;2227.20;;;;;;5014330;28;20116;-78
2023/04/04 08:57:32;;;;;;;15.10;11.95;;;102.60;2227.20;;;;;;5027627;28;20022;-83
2023/04/04 08:59:58;;;;;;;17.38;11.90;;;102.60;2227.20;;;;;;5017411;28;20025;-81
2023/04/04 09:02:31;;;;;;;25.13;16.90;;;102.60;2227.20;;;;;;5029825;28;20026;-80
2023/04/04 09:05:01;;;;;;;16.42;12.52;;;102.60;2227.20;;;;;;5017065;28;20470;-84
2023/04/04 09:07:28;;;;;;;18.33;14.18;;;102.70;2227.20;;;;;;4998566;28;20026;-79
2023/04/04 09:09:54;;;;;;;22.88;15.77;;;102.70;2227.20;;;;;;5030007;28;20024;-79
2023/04/04 09:12:21;;;;;;;15.07;10.40;;;102.80;2227.20;;;;;;5001592;28;20025;-81
2023/04/04 09:14:54;;;;;;;23.23;16.73;;;102.80;2227.20;;;;;;5026414;28;20072;-84
2023/04/04 09:17:25;;;;;;;16.15;12.23;;;102.80;2227.20;;;;;;4998590;28;20478;-85
2023/04/04 09:19:53;;;;;;;15.60;12.13;;;102.80;2227.20;;;;;;5031841;28;20033;-82
2023/04/04 09:22:24;;;;;;;21.92;17.23;;;102.80;2227.20;;;;;;5035022;28;20034;-85
2023/04/04 09:29:28;;;;;;;13.32;9.98;;;103.00;2227.20;;;;;;4978071;28;20234;-84
2023/04/04 09:32:40;;;;;;;18.38;12.23;;;102.90;2227.20;;;;;;4995253;28;20031;-84
2023/04/04 09:35:07;;;;;;;19.33;13.20;;;103.00;2227.20;;;;;;5012609;28;20068;-84
2023/04/04 09:37:33;;;;;;;30.85;20.42;;;103.00;2227.20;;;;;;5013615;28;20046;-83
2023/04/04 09:39:59;;;;;;;23.60;16.30;;;103.10;2227.20;;;;;;5016561;28;20117;-85
2023/04/04 09:42:25;;;;;;;25.75;19.42;;;103.20;2227.20;;;;;;5028715;28;20112;-84
2023/04/04 09:44:54;;;;;;;24.02;18.67;;;103.10;2227.20;;;;;;5013274;28;20030;-84
2023/04/04 09:47:23;;;;;;;17.23;13.88;;;103.10;2227.20;;;;;;5013428;28;20402;-83
2023/04/04 09:49:50;;;;;;;16.58;13.45;;;103.00;2227.20;;;;;;5013272;28;20026;-84
2023/04/04 09:52:20;;;;;;;13.68;11.77;;;103.10;2227.20;;;;;;5027908;28;20036;-82
2023/04/04 09:54:55;;;;;;;15.68;11.57;;;103.20;2227.20;;;;;;5032839;28;20071;-84
2023/04/04 09:57:21;;;;;;;16.30;11.23;;;128.00;2252.80;;;;;;5018025;28;20025;-84
2023/04/04 09:59:47;;;;;;;19.98;12.95;;;103.20;2227.20;;;;;;5024559;28;20033;-84
2023/04/04 10:02:14;;;;;;;19.90;14.30;;;103.10;2227.20;;;;;;5025190;28;20461;-82
2023/04/04 10:04:42;;;;;;;15.43;10.75;;;103.00;2227.20;;;;;;5017643;28;20440;-84
2023/04/04 10:07:15;;;;;;;21.23;15.88;;;103.10;2227.20;;;;;;5029483;28;20116;-84
2023/04/04 10:09:41;;;;;;;22.55;13.77;;;103.10;2227.20;;;;;;5020559;28;20393;-84
2023/04/04 10:12:10;;;;;;;19.15;14.35;;;103.10;2227.20;;;;;;5021889;28;20030;-84
2023/04/04 10:14:37;;;;;;;19.58;12.38;;;103.20;2227.20;;;;;;5030544;28;20227;-84
2023/04/04 10:17:09;;;;;;;34.97;21.00;;;103.10;2227.20;;;;;;5018129;28;20466;-84
2023/04/04 10:19:39;;;;;;;27.30;17.35;;;103.10;2227.20;;;;;;5026273;28;20153;-84
2023/04/04 10:22:05;;;;;;;26.23;18.83;;;103.10;2227.20;;;;;;5023340;28;20030;-82
2023/04/04 10:24:32;;;;;;;16.35;11.45;;;103.30;2227.20;;;;;;5017865;28;20049;-84
2023/04/04 10:26:58;;;;;;;30.25;19.40;;;103.20;2227.20;;;;;;5028875;28;20075;-83
2023/04/04 10:29:24;;;;;;;65.65;40.38;;;103.20;2227.20;;;;;;5018076;28;20355;-85
2023/04/04 10:32:00;;;;;;;39.92;26.60;;;103.20;2227.20;;;;;;5032330;28;20040;-84
2023/04/04 10:34:59;;;;;;;18.13;13.77;;;103.30;2227.20;;;;;;5032546;28;20025;-84
2023/04/04 10:37:30;;;;;;;15.93;11.77;;;103.30;2227.20;;;;;;4988826;28;20046;-84
2023/04/04 10:39:59;;;;;;;16.20;12.18;;;103.30;2227.20;;;;;;5012815;28;20032;-82
2023/04/04 10:42:30;;;;;;;19.75;13.48;;;103.30;2227.20;;;;;;4998858;28;20026;-79
2023/04/04 10:44:57;;;;;;;21.60;13.57;;;103.30;2227.20;;;;;;4993943;28;20125;-82
2023/04/04 10:47:24;;;;;;;28.38;17.77;;;128.00;2252.80;;;;;;5007532;28;20371;-81
2023/04/04 10:49:51;;;;;;;22.23;15.98;;;128.00;2252.80;;;;;;5001785;28;20052;-84
2023/04/04 10:52:23;;;;;;;17.67;13.77;;;128.10;2252.80;;;;;;4999571;28;20026;-84
2023/04/04 10:54:53;;;;;;;13.65;11.25;;;128.00;2252.80;;;;;;5009255;28;20389;-85
2023/04/04 10:57:20;;;;;;;24.27;18.02;;;128.00;2252.80;;;;;;4997364;28;20049;-81
2023/04/04 11:00:07;;;;;;;36.00;24.70;;;128.00;2252.80;;;;;;5004511;28;20382;-84
2023/04/04 11:02:51;;;;;;;37.95;25.15;;;103.30;2227.20;;;;;;5006886;28;20046;-85
2023/04/04 11:05:39;;;;;;;26.92;18.13;;;103.30;2227.20;;;;;;4997069;28;20038;-82
2023/04/04 11:08:09;;;;;;;34.35;21.92;;;103.30;2227.20;;;;;;5012438;28;20042;-85
2023/04/04 11:10:36;;;;;;;34.85;25.05;;;103.30;2227.20;;;;;;5012418;28;20048;-84
2023/04/04 11:13:15;;;;;;;20.98;15.38;;;103.30;2227.20;;;;;;5010146;28;20026;-81
2023/04/04 11:16:20;;;;;;;30.65;21.67;;;103.20;2227.20;;;;;;4992984;28;20042;-84
2023/04/04 11:18:46;;;;;;;39.47;29.38;;;103.20;2227.20;;;;;;4933564;29;20046;-83
2023/04/04 11:21:22;;;;;;;55.60;36.90;;;103.10;2227.20;;;;;;4921420;29;20038;-85
2023/04/04 11:23:48;;;;;;;50.83;34.33;;;103.30;2227.20;;;;;;4968109;28;20046;-86
2023/04/04 11:26:38;;;;;;;40.42;23.80;;;103.30;2227.20;;;;;;5004818;28;20022;-86
2023/04/04 11:29:13;;;;;;;28.75;19.23;;;103.30;2227.20;;;;;;5008890;28;20036;-84
2023/04/04 11:31:39;;;;;;;53.33;33.88;;;103.30;2227.20;;;;;;5008151;28;20030;-83
2023/04/04 11:34:09;;;;;;;33.90;23.15;;;103.30;2227.20;;;;;;5001914;28;20475;-84
2023/04/04 11:36:34;;;;;;;39.60;25.77;;;103.30;2227.20;;;;;;5015799;28;20156;-86
2023/04/04 11:39:09;;;;;;;31.80;22.67;;;103.30;2227.20;;;;;;5022167;28;20120;-83
2023/04/04 11:42:09;;;;;;;43.47;28.90;;;103.30;2227.20;;;;;;5031679;28;20102;-81
2023/04/04 11:44:48;;;;;;;29.23;21.05;;;103.30;2227.20;;;;;;5018537;28;20546;-83
2023/04/04 11:47:17;;;;;;;41.53;29.02;;;128.00;2252.80;;;;;;5035445;28;20455;-83
2023/04/04 11:49:45;;;;;;;37.28;25.73;;;103.30;2227.20;;;;;;5022746;28;20025;-82
2023/04/04 11:52:22;;;;;;;58.95;35.63;;;103.30;2227.20;;;;;;5037453;28;20430;-83
2023/04/04 11:54:49;;;;;;;47.20;28.55;;;128.00;2252.80;;;;;;5037574;28;20036;-81
2023/04/04 11:57:16;;;;;;;41.78;25.65;;;103.30;2227.20;;;;;;5036175;28;20029;-82
2023/04/04 11:59:47;;;;;;;49.83;32.65;;;103.30;2227.20;;;;;;5036689;28;20025;-85
2023/04/04 12:02:16;;;;;;;38.00;25.38;;;103.30;2227.20;;;;;;5027568;28;20036;-84
2023/04/04 12:04:44;;;;;;;48.60;29.42;;;103.30;2227.20;;;;;;5036691;28;20174;-82
2023/04/04 12:07:11;;;;;;;67.38;37.88;;;103.30;2227.20;;;;;;5038733;28;20029;-85
2023/04/04 12:09:37;;;;;;;73.38;43.13;;;103.30;2227.20;;;;;;5033455;28;20499;-83
2023/04/04 12:12:03;;;;;;;47.30;31.02;;;103.30;2227.20;;;;;;5026564;28;20480;-83
2023/04/04 12:14:32;;;;;;;44.22;28.10;;;103.30;2227.20;;;;;;5026239;28;20040;-84
2023/04/04 12:16:58;;;;;;;61.00;36.83;;;128.30;2252.80;;;;;;5034298;28;20453;-83
2023/04/04 12:19:26;;;;;;;38.75;28.15;;;103.30;2227.20;;;;;;5021483;28;20029;-85
2023/04/04 12:21:53;;;;;;;33.22;22.60;;;103.30;2227.20;;;;;;5031068;28;20025;-85
2023/04/04 12:24:19;;;;;;;42.28;26.45;;;103.30;2227.20;;;;;;5028593;28;20436;-83
2023/04/04 12:26:47;;;;;;;26.63;18.85;;;103.30;2227.20;;;;;;5041305;28;20408;-82
2023/04/04 12:29:15;;;;;;;42.50;27.05;;;103.30;2227.20;;;;;;5034686;28;20037;-83
2023/04/04 12:31:43;;;;;;;40.72;27.42;;;128.00;2252.80;;;;;;5037353;28;20056;-84
2023/04/04 12:34:37;;;;;;;41.88;27.67;;;103.30;2227.20;;;;;;5028029;28;20060;-85
2023/04/04 12:37:03;;;;;;;27.13;19.10;;;128.00;2252.80;;;;;;5033664;28;20059;-86
2023/04/04 12:39:29;;;;;;;38.75;23.60;;;103.30;2227.20;;;;;;5021843;28;20120;-86
2023/04/04 12:42:02;;;;;;;36.88;25.27;;;128.00;2252.80;;;;;;5030342;28;20025;-86